sensor_id;sensor_type;location;lat;lon;timestamp;temperature;humidity
15203;DHT22;7702;51.046;5.184;2023-02-05T00:02:07;8.30;99.90
15203;DHT22;7702;51.046;5.184;2023-02-05T00:04:33;8.20;99.90
15203;DHT22;7702;51.046;5.184;2023-02-05T00:06:59;8.20;99.90
15203;DHT22;7702;51.046;5.184;2023-02-05T00:09:25;8.20;99.90
15203;DHT22;7702;51.046;5.184;2023-02-05T00:11:53;8.20;99.90
15203;DHT22;7702;51.046;5.184;2023-02-05T00:14:19;8.20;99.90
15203;DHT22;7702;51.046;5.184;2023-02-05T00:16:45;8.30;99.90
15203;DHT22;7702;51.046;5.184;2023-02-05T00:19:11;8.30;99.90
15203;DHT22;7702;51.046;5.184;2023-02-05T00:21:37;8.30;99.90
15203;DHT22;7702;51.046;5.184;2023-02-05T00:24:03;8.30;99.90
15203;DHT22;7702;51.046;5.184;2023-02-05T00:26:29;8.40;99.90
15203;DHT22;7702;51.046;5.184;2023-02-05T00:28:55;8.40;99.90
15203;DHT22;7702;51.046;5.184;2023-02-05T00:31:21;8.40;99.90
15203;DHT22;7702;51.046;5.184;2023-02-05T00:33:49;8.40;99.90
15203;DHT22;7702;51.046;5.184;2023-02-05T00:36:15;8.40;99.90
15203;DHT22;7702;51.046;5.184;2023-02-05T00:38:43;8.40;99.90
15203;DHT22;7702;51.046;5.184;2023-02-05T00:41:10;8.40;99.90
15203;DHT22;7702;51.046;5.184;2023-02-05T00:43:39;8.40;99.90
15203;DHT22;7702;51.046;5.184;2023-02-05T00:46:06;8.40;99.90
15203;DHT22;7702;51.046;5.184;2023-02-05T00:48:32;8.40;99.90
15203;DHT22;7702;51.046;5.184;2023-02-05T00:50:58;8.30;99.90
15203;DHT22;7702;51.046;5.184;2023-02-05T00:53:24;8.40;99.90
15203;DHT22;7702;51.046;5.184;2023-02-05T00:55:50;8.30;99.90
15203;DHT22;7702;51.046;5.184;2023-02-05T00:58:16;8.30;99.90
15203;DHT22;7702;51.046;5.184;2023-02-05T01:00:42;8.40;99.90
15203;DHT22;7702;51.046;5.184;2023-02-05T01:03:08;8.40;99.90
15203;DHT22;7702;51.046;5.184;2023-02-05T01:05:35;8.40;99.90
15203;DHT22;7702;51.046;5.184;2023-02-05T01:08:01;8.40;99.90
15203;DHT22;7702;51.046;5.184;2023-02-05T01:10:27;8.40;99.90
15203;DHT22;7702;51.046;5.184;2023-02-05T01:12:53;8.30;99.90
15203;DHT22;7702;51.046;5.184;2023-02-05T01:15:19;8.30;99.90
15203;DHT22;7702;51.046;5.184;2023-02-05T01:17:45;8.30;99.90
15203;DHT22;7702;51.046;5.184;2023-02-05T01:20:12;8.30;99.90
15203;DHT22;7702;51.046;5.184;2023-02-05T01:22:38;8.30;99.90
15203;DHT22;7702;51.046;5.184;2023-02-05T01:25:04;8.30;99.90
15203;DHT22;7702;51.046;5.184;2023-02-05T01:27:34;8.30;99.90
15203;DHT22;7702;51.046;5.184;2023-02-05T01:30:00;8.30;99.90
15203;DHT22;7702;51.046;5.184;2023-02-05T01:32:27;8.30;99.90
15203;DHT22;7702;51.046;5.184;2023-02-05T01:34:53;8.20;99.90
15203;DHT22;7702;51.046;5.184;2023-02-05T01:37:19;8.20;99.90
15203;DHT22;7702;51.046;5.184;2023-02-05T01:39:44;8.20;99.90
15203;DHT22;7702;51.046;5.184;2023-02-05T01:42:19;8.20;99.90
15203;DHT22;7702;51.046;5.184;2023-02-05T01:47:52;8.10;99.90
15203;DHT22;7702;51.046;5.184;2023-02-05T01:50:21;8.10;99.90
15203;DHT22;7702;51.046;5.184;2023-02-05T01:52:48;8.10;99.90
15203;DHT22;7702;51.046;5.184;2023-02-05T01:55:14;8.10;99.90
15203;DHT22;7702;51.046;5.184;2023-02-05T01:57:40;8.00;99.90
15203;DHT22;7702;51.046;5.184;2023-02-05T02:00:08;8.10;99.90
15203;DHT22;7702;51.046;5.184;2023-02-05T02:02:35;8.00;99.90
15203;DHT22;7702;51.046;5.184;2023-02-05T02:05:10;8.00;99.90
15203;DHT22;7702;51.046;5.184;2023-02-05T02:07:38;8.00;99.90
15203;DHT22;7702;51.046;5.184;2023-02-05T02:10:05;8.00;99.90
15203;DHT22;7702;51.046;5.184;2023-02-05T02:12:33;8.10;99.90
15203;DHT22;7702;51.046;5.184;2023-02-05T02:15:02;8.10;99.90
15203;DHT22;7702;51.046;5.184;2023-02-05T02:17:30;8.10;99.90
15203;DHT22;7702;51.046;5.184;2023-02-05T02:19:59;8.00;99.90
15203;DHT22;7702;51.046;5.184;2023-02-05T02:25:37;8.00;99.90
15203;DHT22;7702;51.046;5.184;2023-02-05T02:28:30;8.00;99.90
15203;DHT22;7702;51.046;5.184;2023-02-05T02:37:11;8.00;99.90
15203;DHT22;7702;51.046;5.184;2023-02-05T02:39:42;8.00;99.90
15203;DHT22;7702;51.046;5.184;2023-02-05T02:42:17;8.00;99.90
15203;DHT22;7702;51.046;5.184;2023-02-05T02:44:59;8.00;99.90
15203;DHT22;7702;51.046;5.184;2023-02-05T02:47:48;7.90;99.90
15203;DHT22;7702;51.046;5.184;2023-02-05T02:50:22;7.90;99.90
15203;DHT22;7702;51.046;5.184;2023-02-05T02:52:50;7.80;99.90
15203;DHT22;7702;51.046;5.184;2023-02-05T02:55:18;7.90;99.90
15203;DHT22;7702;51.046;5.184;2023-02-05T02:57:46;7.90;99.90
15203;DHT22;7702;51.046;5.184;2023-02-05T03:00:19;7.90;99.90
15203;DHT22;7702;51.046;5.184;2023-02-05T03:02:47;7.90;99.90
15203;DHT22;7702;51.046;5.184;2023-02-05T03:05:17;7.90;99.90
15203;DHT22;7702;51.046;5.184;2023-02-05T03:07:47;7.80;99.90
15203;DHT22;7702;51.046;5.184;2023-02-05T03:10:22;7.80;99.90
15203;DHT22;7702;51.046;5.184;2023-02-05T03:12:49;7.80;99.90
15203;DHT22;7702;51.046;5.184;2023-02-05T03:15:15;7.80;99.90
15203;DHT22;7702;51.046;5.184;2023-02-05T03:17:41;7.80;99.90
15203;DHT22;7702;51.046;5.184;2023-02-05T03:20:16;7.80;99.90
15203;DHT22;7702;51.046;5.184;2023-02-05T03:22:43;7.80;99.90
15203;DHT22;7702;51.046;5.184;2023-02-05T03:25:09;7.80;99.90
15203;DHT22;7702;51.046;5.184;2023-02-05T03:27:35;7.70;99.90
15203;DHT22;7702;51.046;5.184;2023-02-05T03:30:03;7.60;99.90
15203;DHT22;7702;51.046;5.184;2023-02-05T03:32:38;7.70;99.90
15203;DHT22;7702;51.046;5.184;2023-02-05T03:37:59;7.70;99.90
15203;DHT22;7702;51.046;5.184;2023-02-05T03:48:49;7.70;99.90
15203;DHT22;7702;51.046;5.184;2023-02-05T03:51:37;7.70;99.90
15203;DHT22;7702;51.046;5.184;2023-02-05T03:56:45;7.60;99.90
15203;DHT22;7702;51.046;5.184;2023-02-05T03:59:13;7.60;99.90
15203;DHT22;7702;51.046;5.184;2023-02-05T04:01:42;7.60;99.90
15203;DHT22;7702;51.046;5.184;2023-02-05T04:04:09;7.60;99.90
15203;DHT22;7702;51.046;5.184;2023-02-05T04:06:34;7.60;99.90
15203;DHT22;7702;51.046;5.184;2023-02-05T04:09:00;7.70;99.90
15203;DHT22;7702;51.046;5.184;2023-02-05T04:11:26;7.60;99.90
15203;DHT22;7702;51.046;5.184;2023-02-05T04:13:51;7.60;99.90
15203;DHT22;7702;51.046;5.184;2023-02-05T04:16:17;7.50;99.90
15203;DHT22;7702;51.046;5.184;2023-02-05T04:18:43;7.60;99.90
15203;DHT22;7702;51.046;5.184;2023-02-05T04:21:08;7.60;99.90
15203;DHT22;7702;51.046;5.184;2023-02-05T04:23:35;7.50;99.90
15203;DHT22;7702;51.046;5.184;2023-02-05T04:26:00;7.50;99.90
15203;DHT22;7702;51.046;5.184;2023-02-05T04:28:26;7.40;99.90
15203;DHT22;7702;51.046;5.184;2023-02-05T04:30:52;7.40;99.90
15203;DHT22;7702;51.046;5.184;2023-02-05T04:33:17;7.40;99.90
15203;DHT22;7702;51.046;5.184;2023-02-05T04:35:43;7.40;99.90
15203;DHT22;7702;51.046;5.184;2023-02-05T04:38:11;7.50;99.90
15203;DHT22;7702;51.046;5.184;2023-02-05T04:40:36;7.50;99.90
15203;DHT22;7702;51.046;5.184;2023-02-05T04:43:02;7.40;99.90
15203;DHT22;7702;51.046;5.184;2023-02-05T04:45:28;7.40;99.90
15203;DHT22;7702;51.046;5.184;2023-02-05T04:47:56;7.40;99.90
15203;DHT22;7702;51.046;5.184;2023-02-05T04:50:22;7.40;99.90
15203;DHT22;7702;51.046;5.184;2023-02-05T04:52:47;7.40;99.90
15203;DHT22;7702;51.046;5.184;2023-02-05T04:55:13;7.40;99.90
15203;DHT22;7702;51.046;5.184;2023-02-05T04:57:39;7.40;99.90
15203;DHT22;7702;51.046;5.184;2023-02-05T05:00:05;7.40;99.90
15203;DHT22;7702;51.046;5.184;2023-02-05T05:02:32;7.40;99.90
15203;DHT22;7702;51.046;5.184;2023-02-05T05:04:57;7.40;99.90
15203;DHT22;7702;51.046;5.184;2023-02-05T05:07:23;7.40;99.90
15203;DHT22;7702;51.046;5.184;2023-02-05T05:09:49;7.40;99.90
15203;DHT22;7702;51.046;5.184;2023-02-05T05:12:14;7.40;99.90
15203;DHT22;7702;51.046;5.184;2023-02-05T05:14:40;7.40;99.90
15203;DHT22;7702;51.046;5.184;2023-02-05T05:17:06;7.40;99.90
15203;DHT22;7702;51.046;5.184;2023-02-05T05:19:32;7.40;99.90
15203;DHT22;7702;51.046;5.184;2023-02-05T05:21:58;7.40;99.90
15203;DHT22;7702;51.046;5.184;2023-02-05T05:24:23;7.40;99.90
15203;DHT22;7702;51.046;5.184;2023-02-05T05:26:49;7.30;99.90
15203;DHT22;7702;51.046;5.184;2023-02-05T05:29:14;7.30;99.90
15203;DHT22;7702;51.046;5.184;2023-02-05T05:31:40;7.30;99.90
15203;DHT22;7702;51.046;5.184;2023-02-05T05:34:06;7.30;99.90
15203;DHT22;7702;51.046;5.184;2023-02-05T05:36:32;7.30;99.90
15203;DHT22;7702;51.046;5.184;2023-02-05T05:38:57;7.30;99.90
15203;DHT22;7702;51.046;5.184;2023-02-05T05:41:43;7.30;99.90
15203;DHT22;7702;51.046;5.184;2023-02-05T05:44:39;7.30;99.90
15203;DHT22;7702;51.046;5.184;2023-02-05T05:47:04;7.20;99.90
15203;DHT22;7702;51.046;5.184;2023-02-05T05:49:30;7.30;99.90
15203;DHT22;7702;51.046;5.184;2023-02-05T05:51:56;7.30;99.90
15203;DHT22;7702;51.046;5.184;2023-02-05T05:54:21;7.20;99.90
15203;DHT22;7702;51.046;5.184;2023-02-05T05:56:47;7.20;99.90
15203;DHT22;7702;51.046;5.184;2023-02-05T05:59:14;7.20;99.90
15203;DHT22;7702;51.046;5.184;2023-02-05T06:01:40;7.20;99.90
15203;DHT22;7702;51.046;5.184;2023-02-05T06:04:06;7.20;99.90
15203;DHT22;7702;51.046;5.184;2023-02-05T06:06:31;7.20;99.90
15203;DHT22;7702;51.046;5.184;2023-02-05T06:08:57;7.20;99.90
15203;DHT22;7702;51.046;5.184;2023-02-05T06:11:23;7.20;99.90
15203;DHT22;7702;51.046;5.184;2023-02-05T06:13:48;7.20;99.90
15203;DHT22;7702;51.046;5.184;2023-02-05T06:16:14;7.10;99.90
15203;DHT22;7702;51.046;5.184;2023-02-05T06:18:40;7.10;99.90
15203;DHT22;7702;51.046;5.184;2023-02-05T06:21:05;7.10;99.90
15203;DHT22;7702;51.046;5.184;2023-02-05T06:23:32;7.10;99.90
15203;DHT22;7702;51.046;5.184;2023-02-05T06:25:58;7.10;99.90
15203;DHT22;7702;51.046;5.184;2023-02-05T06:28:24;7.10;99.90
15203;DHT22;7702;51.046;5.184;2023-02-05T06:30:49;7.10;99.90
15203;DHT22;7702;51.046;5.184;2023-02-05T06:33:15;7.10;99.90
15203;DHT22;7702;51.046;5.184;2023-02-05T06:35:41;7.00;99.90
15203;DHT22;7702;51.046;5.184;2023-02-05T06:38:07;7.00;99.90
15203;DHT22;7702;51.046;5.184;2023-02-05T06:40:33;7.00;99.90
15203;DHT22;7702;51.046;5.184;2023-02-05T06:43:00;6.90;99.90
15203;DHT22;7702;51.046;5.184;2023-02-05T06:45:25;6.90;99.90
15203;DHT22;7702;51.046;5.184;2023-02-05T06:47:51;6.90;99.90
15203;DHT22;7702;51.046;5.184;2023-02-05T06:50:23;6.90;99.90
15203;DHT22;7702;51.046;5.184;2023-02-05T06:52:49;6.90;99.90
15203;DHT22;7702;51.046;5.184;2023-02-05T06:55:16;6.90;99.90
15203;DHT22;7702;51.046;5.184;2023-02-05T06:57:41;6.90;99.90
15203;DHT22;7702;51.046;5.184;2023-02-05T07:00:08;6.90;99.90
15203;DHT22;7702;51.046;5.184;2023-02-05T07:02:34;6.90;99.90
15203;DHT22;7702;51.046;5.184;2023-02-05T07:05:00;7.00;99.90
15203;DHT22;7702;51.046;5.184;2023-02-05T07:07:26;7.00;99.90
15203;DHT22;7702;51.046;5.184;2023-02-05T07:09:52;7.00;99.90
15203;DHT22;7702;51.046;5.184;2023-02-05T07:12:18;7.00;99.90
15203;DHT22;7702;51.046;5.184;2023-02-05T07:14:44;7.00;99.90
15203;DHT22;7702;51.046;5.184;2023-02-05T07:17:10;7.00;99.90
15203;DHT22;7702;51.046;5.184;2023-02-05T07:19:36;7.10;99.90
15203;DHT22;7702;51.046;5.184;2023-02-05T07:22:03;7.10;99.90
15203;DHT22;7702;51.046;5.184;2023-02-05T07:24:28;7.20;99.90
15203;DHT22;7702;51.046;5.184;2023-02-05T07:26:54;7.10;99.90
15203;DHT22;7702;51.046;5.184;2023-02-05T07:29:20;7.10;99.90
15203;DHT22;7702;51.046;5.184;2023-02-05T07:31:48;7.00;99.90
15203;DHT22;7702;51.046;5.184;2023-02-05T07:34:14;7.00;99.90
15203;DHT22;7702;51.046;5.184;2023-02-05T07:36:40;6.90;99.90
15203;DHT22;7702;51.046;5.184;2023-02-05T07:39:05;6.90;99.90
15203;DHT22;7702;51.046;5.184;2023-02-05T07:41:31;6.80;99.90
15203;DHT22;7702;51.046;5.184;2023-02-05T07:43:57;6.80;99.90
15203;DHT22;7702;51.046;5.184;2023-02-05T07:46:23;6.80;99.90
15203;DHT22;7702;51.046;5.184;2023-02-05T07:48:48;6.70;99.90
15203;DHT22;7702;51.046;5.184;2023-02-05T07:51:22;6.60;99.90
15203;DHT22;7702;51.046;5.184;2023-02-05T07:53:48;6.60;99.90
15203;DHT22;7702;51.046;5.184;2023-02-05T07:56:14;6.60;99.90
15203;DHT22;7702;51.046;5.184;2023-02-05T07:58:41;6.60;99.90
15203;DHT22;7702;51.046;5.184;2023-02-05T08:01:07;6.70;99.90
15203;DHT22;7702;51.046;5.184;2023-02-05T08:03:33;6.60;99.90
15203;DHT22;7702;51.046;5.184;2023-02-05T08:06:06;6.60;99.90
15203;DHT22;7702;51.046;5.184;2023-02-05T08:08:32;6.60;99.90
15203;DHT22;7702;51.046;5.184;2023-02-05T08:11:01;6.70;99.90
15203;DHT22;7702;51.046;5.184;2023-02-05T08:13:27;6.70;99.90
15203;DHT22;7702;51.046;5.184;2023-02-05T08:15:53;6.60;99.90
15203;DHT22;7702;51.046;5.184;2023-02-05T08:18:20;6.60;99.90
15203;DHT22;7702;51.046;5.184;2023-02-05T08:20:46;6.60;99.90
15203;DHT22;7702;51.046;5.184;2023-02-05T08:23:11;6.60;99.90
15203;DHT22;7702;51.046;5.184;2023-02-05T08:25:38;6.70;99.90
15203;DHT22;7702;51.046;5.184;2023-02-05T08:28:05;6.70;99.90
15203;DHT22;7702;51.046;5.184;2023-02-05T08:30:31;6.70;99.90
15203;DHT22;7702;51.046;5.184;2023-02-05T08:32:56;6.70;99.90
15203;DHT22;7702;51.046;5.184;2023-02-05T08:35:22;6.80;99.90
15203;DHT22;7702;51.046;5.184;2023-02-05T08:37:48;6.80;99.90
15203;DHT22;7702;51.046;5.184;2023-02-05T08:40:13;6.80;99.90
15203;DHT22;7702;51.046;5.184;2023-02-05T08:42:39;6.80;99.90
15203;DHT22;7702;51.046;5.184;2023-02-05T08:45:05;6.80;99.90
15203;DHT22;7702;51.046;5.184;2023-02-05T08:47:34;6.90;99.90
15203;DHT22;7702;51.046;5.184;2023-02-05T08:49:59;6.90;99.90
15203;DHT22;7702;51.046;5.184;2023-02-05T08:52:25;6.90;99.90
15203;DHT22;7702;51.046;5.184;2023-02-05T08:54:51;7.00;99.90
15203;DHT22;7702;51.046;5.184;2023-02-05T08:57:16;7.00;99.90
15203;DHT22;7702;51.046;5.184;2023-02-05T08:59:42;7.10;99.90
15203;DHT22;7702;51.046;5.184;2023-02-05T09:02:13;7.10;99.90
15203;DHT22;7702;51.046;5.184;2023-02-05T09:04:39;7.10;99.90
15203;DHT22;7702;51.046;5.184;2023-02-05T09:07:04;7.10;99.90
15203;DHT22;7702;51.046;5.184;2023-02-05T09:09:31;7.10;99.90
15203;DHT22;7702;51.046;5.184;2023-02-05T09:11:57;7.10;99.90
15203;DHT22;7702;51.046;5.184;2023-02-05T09:14:23;7.10;99.90
15203;DHT22;7702;51.046;5.184;2023-02-05T09:16:49;7.20;99.90
15203;DHT22;7702;51.046;5.184;2023-02-05T09:19:14;7.20;99.90
15203;DHT22;7702;51.046;5.184;2023-02-05T09:21:40;7.10;99.90
15203;DHT22;7702;51.046;5.184;2023-02-05T09:24:06;7.10;99.90
15203;DHT22;7702;51.046;5.184;2023-02-05T09:26:32;7.00;99.90
15203;DHT22;7702;51.046;5.184;2023-02-05T09:28:57;6.90;99.90
15203;DHT22;7702;51.046;5.184;2023-02-05T09:31:23;6.80;99.90
15203;DHT22;7702;51.046;5.184;2023-02-05T09:33:49;6.70;99.90
15203;DHT22;7702;51.046;5.184;2023-02-05T09:36:20;6.60;99.90
15203;DHT22;7702;51.046;5.184;2023-02-05T09:38:46;6.50;99.90
15203;DHT22;7702;51.046;5.184;2023-02-05T09:43:51;6.50;99.90
15203;DHT22;7702;51.046;5.184;2023-02-05T09:46:26;6.40;99.90
15203;DHT22;7702;51.046;5.184;2023-02-05T09:51:44;6.80;99.90
15203;DHT22;7702;51.046;5.184;2023-02-05T09:54:41;6.90;99.90
15203;DHT22;7702;51.046;5.184;2023-02-05T09:57:17;7.00;99.90
15203;DHT22;7702;51.046;5.184;2023-02-05T09:59:45;7.20;99.90
15203;DHT22;7702;51.046;5.184;2023-02-05T10:02:23;7.30;99.90
15203;DHT22;7702;51.046;5.184;2023-02-05T10:04:52;7.30;99.90
15203;DHT22;7702;51.046;5.184;2023-02-05T10:07:52;7.30;99.90
15203;DHT22;7702;51.046;5.184;2023-02-05T10:10:25;7.40;99.90
15203;DHT22;7702;51.046;5.184;2023-02-05T10:16:09;7.50;99.90
15203;DHT22;7702;51.046;5.184;2023-02-05T10:26:51;7.50;99.90
15203;DHT22;7702;51.046;5.184;2023-02-05T10:32:24;7.60;99.90
15203;DHT22;7702;51.046;5.184;2023-02-05T10:35:04;7.70;99.90
15203;DHT22;7702;51.046;5.184;2023-02-05T10:40:00;7.60;99.90
15203;DHT22;7702;51.046;5.184;2023-02-05T10:42:31;7.60;99.90
15203;DHT22;7702;51.046;5.184;2023-02-05T10:45:17;7.60;99.90
15203;DHT22;7702;51.046;5.184;2023-02-05T10:48:14;7.60;99.90
15203;DHT22;7702;51.046;5.184;2023-02-05T10:51:05;7.70;99.90
15203;DHT22;7702;51.046;5.184;2023-02-05T10:53:31;7.60;99.90
15203;DHT22;7702;51.046;5.184;2023-02-05T10:55:59;7.70;99.90
15203;DHT22;7702;51.046;5.184;2023-02-05T11:01:02;7.80;99.90
15203;DHT22;7702;51.046;5.184;2023-02-05T11:03:29;7.80;99.90
15203;DHT22;7702;51.046;5.184;2023-02-05T11:05:55;7.80;99.90
15203;DHT22;7702;51.046;5.184;2023-02-05T11:08:55;7.80;99.90
15203;DHT22;7702;51.046;5.184;2023-02-05T11:11:24;7.90;99.90
15203;DHT22;7702;51.046;5.184;2023-02-05T11:13:56;7.90;99.90
15203;DHT22;7702;51.046;5.184;2023-02-05T11:16:34;7.90;99.90
15203;DHT22;7702;51.046;5.184;2023-02-05T11:19:00;7.80;99.90
15203;DHT22;7702;51.046;5.184;2023-02-05T11:22:05;7.80;99.90
15203;DHT22;7702;51.046;5.184;2023-02-05T11:24:37;7.60;99.90
15203;DHT22;7702;51.046;5.184;2023-02-05T11:29:41;7.70;99.90
15203;DHT22;7702;51.046;5.184;2023-02-05T11:32:33;7.80;99.90
15203;DHT22;7702;51.046;5.184;2023-02-05T11:35:22;7.90;99.90
15203;DHT22;7702;51.046;5.184;2023-02-05T11:38:06;7.90;99.90
15203;DHT22;7702;51.046;5.184;2023-02-05T11:40:32;7.90;99.90
15203;DHT22;7702;51.046;5.184;2023-02-05T11:43:24;8.00;99.90
15203;DHT22;7702;51.046;5.184;2023-02-05T11:45:53;8.10;99.90
15203;DHT22;7702;51.046;5.184;2023-02-05T11:48:27;8.10;99.90
15203;DHT22;7702;51.046;5.184;2023-02-05T11:50:55;8.10;99.90
15203;DHT22;7702;51.046;5.184;2023-02-05T11:53:21;8.10;99.90
15203;DHT22;7702;51.046;5.184;2023-02-05T11:55:54;8.00;99.90
15203;DHT22;7702;51.046;5.184;2023-02-05T11:58:24;8.00;99.90
15203;DHT22;7702;51.046;5.184;2023-02-05T12:01:00;8.00;99.90
15203;DHT22;7702;51.046;5.184;2023-02-05T12:03:29;8.00;99.90
15203;DHT22;7702;51.046;5.184;2023-02-05T12:08:47;8.00;99.90
15203;DHT22;7702;51.046;5.184;2023-02-05T12:19:54;8.00;99.90
15203;DHT22;7702;51.046;5.184;2023-02-05T12:27:44;8.10;99.90
15203;DHT22;7702;51.046;5.184;2023-02-05T12:35:14;8.20;99.90
15203;DHT22;7702;51.046;5.184;2023-02-05T12:48:00;8.30;99.90
15203;DHT22;7702;51.046;5.184;2023-02-05T12:56:24;8.40;99.90
15203;DHT22;7702;51.046;5.184;2023-02-05T12:59:09;8.30;99.90
15203;DHT22;7702;51.046;5.184;2023-02-05T13:01:42;8.40;99.90
15203;DHT22;7702;51.046;5.184;2023-02-05T13:04:24;8.60;99.90
15203;DHT22;7702;51.046;5.184;2023-02-05T13:07:05;8.60;99.90
15203;DHT22;7702;51.046;5.184;2023-02-05T13:09:55;8.60;99.90
15203;DHT22;7702;51.046;5.184;2023-02-05T13:12:25;8.70;99.90
15203;DHT22;7702;51.046;5.184;2023-02-05T13:15:04;8.60;99.90
15203;DHT22;7702;51.046;5.184;2023-02-05T13:17:36;8.60;99.90
15203;DHT22;7702;51.046;5.184;2023-02-05T13:20:40;8.50;99.90
15203;DHT22;7702;51.046;5.184;2023-02-05T13:23:17;8.60;99.90
15203;DHT22;7702;51.046;5.184;2023-02-05T13:26:02;8.60;99.90
15203;DHT22;7702;51.046;5.184;2023-02-05T13:28:55;8.50;99.90
15203;DHT22;7702;51.046;5.184;2023-02-05T13:31:30;8.60;99.90
15203;DHT22;7702;51.046;5.184;2023-02-05T13:34:07;8.50;99.90
15203;DHT22;7702;51.046;5.184;2023-02-05T13:36:58;8.40;99.90
15203;DHT22;7702;51.046;5.184;2023-02-05T13:47:57;8.30;99.90
15203;DHT22;7702;51.046;5.184;2023-02-05T13:56:23;8.50;99.90
15203;DHT22;7702;51.046;5.184;2023-02-05T13:58:56;8.40;99.90
15203;DHT22;7702;51.046;5.184;2023-02-05T14:01:26;8.50;99.90
15203;DHT22;7702;51.046;5.184;2023-02-05T14:04:54;8.60;99.90
15203;DHT22;7702;51.046;5.184;2023-02-05T14:07:04;8.70;99.90
15203;DHT22;7702;51.046;5.184;2023-02-05T14:09:40;8.70;99.90
15203;DHT22;7702;51.046;5.184;2023-02-05T14:12:19;8.60;99.90
15203;DHT22;7702;51.046;5.184;2023-02-05T14:22:51;8.90;99.90
15203;DHT22;7702;51.046;5.184;2023-02-05T14:30:54;9.00;99.90
15203;DHT22;7702;51.046;5.184;2023-02-05T14:33:38;8.90;99.90
15203;DHT22;7702;51.046;5.184;2023-02-05T14:38:44;8.80;99.90
15203;DHT22;7702;51.046;5.184;2023-02-05T14:41:15;8.70;99.90
15203;DHT22;7702;51.046;5.184;2023-02-05T14:43:45;8.70;99.90
15203;DHT22;7702;51.046;5.184;2023-02-05T14:46:31;8.60;99.90
15203;DHT22;7702;51.046;5.184;2023-02-05T14:48:59;8.50;99.90
15203;DHT22;7702;51.046;5.184;2023-02-05T14:51:40;8.50;99.90
15203;DHT22;7702;51.046;5.184;2023-02-05T14:54:21;8.50;99.90
15203;DHT22;7702;51.046;5.184;2023-02-05T14:56:51;8.50;99.90
15203;DHT22;7702;51.046;5.184;2023-02-05T14:59:27;8.50;99.90
15203;DHT22;7702;51.046;5.184;2023-02-05T15:01:55;8.50;99.90
15203;DHT22;7702;51.046;5.184;2023-02-05T15:06:52;8.50;99.90
15203;DHT22;7702;51.046;5.184;2023-02-05T15:09:32;8.30;99.90
15203;DHT22;7702;51.046;5.184;2023-02-05T15:14:52;8.10;99.90
15203;DHT22;7702;51.046;5.184;2023-02-05T15:20:02;7.90;99.90
15203;DHT22;7702;51.046;5.184;2023-02-05T15:22:41;7.90;99.90
15203;DHT22;7702;51.046;5.184;2023-02-05T15:25:37;7.80;99.90
15203;DHT22;7702;51.046;5.184;2023-02-05T15:28:17;7.80;99.90
15203;DHT22;7702;51.046;5.184;2023-02-05T15:31:07;7.80;99.90
15203;DHT22;7702;51.046;5.184;2023-02-05T15:33:40;7.80;99.90
15203;DHT22;7702;51.046;5.184;2023-02-05T15:36:17;7.90;99.90
15203;DHT22;7702;51.046;5.184;2023-02-05T15:38:50;8.00;99.90
15203;DHT22;7702;51.046;5.184;2023-02-05T15:41:19;7.90;99.90
15203;DHT22;7702;51.046;5.184;2023-02-05T15:44:00;8.00;99.90
15203;DHT22;7702;51.046;5.184;2023-02-05T15:46:27;8.00;99.90
15203;DHT22;7702;51.046;5.184;2023-02-05T15:48:54;7.90;99.90
15203;DHT22;7702;51.046;5.184;2023-02-05T15:51:33;7.90;99.90
15203;DHT22;7702;51.046;5.184;2023-02-05T15:54:02;7.80;99.90
15203;DHT22;7702;51.046;5.184;2023-02-05T15:56:37;7.80;99.90
15203;DHT22;7702;51.046;5.184;2023-02-05T16:01:39;7.80;99.90
15203;DHT22;7702;51.046;5.184;2023-02-05T16:04:29;7.80;99.90
15203;DHT22;7702;51.046;5.184;2023-02-05T16:06:56;7.70;99.90
15203;DHT22;7702;51.046;5.184;2023-02-05T16:09:24;7.70;99.90
15203;DHT22;7702;51.046;5.184;2023-02-05T16:11:51;7.60;99.90
15203;DHT22;7702;51.046;5.184;2023-02-05T16:14:20;7.50;99.90
15203;DHT22;7702;51.046;5.184;2023-02-05T16:16:56;7.50;99.90
15203;DHT22;7702;51.046;5.184;2023-02-05T16:19:30;7.50;99.90
15203;DHT22;7702;51.046;5.184;2023-02-05T16:22:06;7.40;99.90
15203;DHT22;7702;51.046;5.184;2023-02-05T16:24:40;7.40;99.90
15203;DHT22;7702;51.046;5.184;2023-02-05T16:27:32;7.30;99.90
15203;DHT22;7702;51.046;5.184;2023-02-05T16:29:59;7.20;99.90
15203;DHT22;7702;51.046;5.184;2023-02-05T16:32:35;7.10;99.90
15203;DHT22;7702;51.046;5.184;2023-02-05T16:35:05;7.10;99.90
15203;DHT22;7702;51.046;5.184;2023-02-05T16:37:32;7.10;99.90
15203;DHT22;7702;51.046;5.184;2023-02-05T16:40:00;7.00;99.90
15203;DHT22;7702;51.046;5.184;2023-02-05T16:42:35;7.00;99.90
15203;DHT22;7702;51.046;5.184;2023-02-05T16:45:23;6.90;99.90
15203;DHT22;7702;51.046;5.184;2023-02-05T16:48:20;6.90;99.90
15203;DHT22;7702;51.046;5.184;2023-02-05T16:50:47;6.80;99.90
15203;DHT22;7702;51.046;5.184;2023-02-05T16:53:18;6.80;99.90
15203;DHT22;7702;51.046;5.184;2023-02-05T16:55:44;6.80;99.90
15203;DHT22;7702;51.046;5.184;2023-02-05T16:58:16;6.80;99.90
15203;DHT22;7702;51.046;5.184;2023-02-05T17:00:53;6.80;99.90
15203;DHT22;7702;51.046;5.184;2023-02-05T17:03:20;6.70;99.90
15203;DHT22;7702;51.046;5.184;2023-02-05T17:05:56;6.70;99.90
15203;DHT22;7702;51.046;5.184;2023-02-05T17:08:32;6.60;99.90
15203;DHT22;7702;51.046;5.184;2023-02-05T17:11:04;6.60;99.90
15203;DHT22;7702;51.046;5.184;2023-02-05T17:13:42;6.50;99.90
15203;DHT22;7702;51.046;5.184;2023-02-05T17:16:28;6.50;99.90
15203;DHT22;7702;51.046;5.184;2023-02-05T17:18:59;6.40;99.90
15203;DHT22;7702;51.046;5.184;2023-02-05T17:21:35;6.50;99.90
15203;DHT22;7702;51.046;5.184;2023-02-05T17:24:02;6.50;99.90
15203;DHT22;7702;51.046;5.184;2023-02-05T17:26:32;6.50;99.90
15203;DHT22;7702;51.046;5.184;2023-02-05T17:29:02;6.40;99.90
15203;DHT22;7702;51.046;5.184;2023-02-05T17:31:35;6.40;99.90
15203;DHT22;7702;51.046;5.184;2023-02-05T17:34:01;6.40;99.90
15203;DHT22;7702;51.046;5.184;2023-02-05T17:36:27;6.40;99.90
15203;DHT22;7702;51.046;5.184;2023-02-05T17:38:53;6.40;99.90
15203;DHT22;7702;51.046;5.184;2023-02-05T17:41:27;6.40;99.90
15203;DHT22;7702;51.046;5.184;2023-02-05T17:44:15;6.30;99.90
15203;DHT22;7702;51.046;5.184;2023-02-05T17:46:42;6.30;99.90
15203;DHT22;7702;51.046;5.184;2023-02-05T17:49:08;6.30;99.90
15203;DHT22;7702;51.046;5.184;2023-02-05T17:51:34;6.30;99.90
15203;DHT22;7702;51.046;5.184;2023-02-05T17:54:00;6.20;99.90
15203;DHT22;7702;51.046;5.184;2023-02-05T17:56:26;6.20;99.90
15203;DHT22;7702;51.046;5.184;2023-02-05T17:58:53;6.20;99.90
15203;DHT22;7702;51.046;5.184;2023-02-05T18:01:20;6.20;99.90
15203;DHT22;7702;51.046;5.184;2023-02-05T18:03:46;6.10;99.90
15203;DHT22;7702;51.046;5.184;2023-02-05T18:06:14;6.10;99.90
15203;DHT22;7702;51.046;5.184;2023-02-05T18:08:41;6.10;99.90
15203;DHT22;7702;51.046;5.184;2023-02-05T18:11:07;6.00;99.90
15203;DHT22;7702;51.046;5.184;2023-02-05T18:13:34;6.00;99.90
15203;DHT22;7702;51.046;5.184;2023-02-05T18:16:00;6.00;99.90
15203;DHT22;7702;51.046;5.184;2023-02-05T18:18:30;5.90;99.90
15203;DHT22;7702;51.046;5.184;2023-02-05T18:20:56;5.90;99.90
15203;DHT22;7702;51.046;5.184;2023-02-05T18:23:23;5.90;99.90
15203;DHT22;7702;51.046;5.184;2023-02-05T18:25:49;5.90;99.90
15203;DHT22;7702;51.046;5.184;2023-02-05T18:28:14;5.90;99.90
15203;DHT22;7702;51.046;5.184;2023-02-05T18:30:40;5.90;99.90
15203;DHT22;7702;51.046;5.184;2023-02-05T18:33:07;5.80;99.90
15203;DHT22;7702;51.046;5.184;2023-02-05T18:35:32;5.90;99.90